createdAt,value
2023-03-31T00:01:34.564Z,3.80
2023-03-31T00:04:05.646Z,3.80
2023-03-31T00:06:38.422Z,3.80
2023-03-31T00:09:07.199Z,3.70
2023-03-31T00:11:37.878Z,3.80
2023-03-31T00:14:07.489Z,3.70
2023-03-31T00:16:36.152Z,3.60
2023-03-31T00:19:05.000Z,3.70
2023-03-31T00:21:35.040Z,3.60
2023-03-31T00:24:04.515Z,3.60
2023-03-31T00:26:33.432Z,3.60
2023-03-31T00:29:03.594Z,3.60
2023-03-31T00:31:32.223Z,3.60
2023-03-31T00:34:01.166Z,3.60
2023-03-31T00:36:29.990Z,3.60
2023-03-31T00:39:00.513Z,3.50
2023-03-31T00:41:30.125Z,3.50
2023-03-31T00:47:01.675Z,3.60
2023-03-31T00:49:31.724Z,3.30
2023-03-31T00:52:03.789Z,3.50
2023-03-31T00:54:34.628Z,3.40
2023-03-31T00:57:07.032Z,3.40
2023-03-31T00:59:55.053Z,3.50
2023-03-31T01:02:26.170Z,3.40
2023-03-31T01:04:57.644Z,3.40
2023-03-31T01:07:28.297Z,3.40
2023-03-31T01:10:00.579Z,3.50
2023-03-31T01:12:29.570Z,3.30
2023-03-31T01:14:58.316Z,3.40
2023-03-31T01:17:30.219Z,3.50
2023-03-31T01:20:11.804Z,3.40
2023-03-31T01:23:10.894Z,3.40
2023-03-31T01:26:15.950Z,3.40
2023-03-31T01:28:48.012Z,3.40
2023-03-31T01:31:40.739Z,3.40
2023-03-31T01:34:30.327Z,3.40
2023-03-31T01:37:35.637Z,3.40
2023-03-31T01:40:22.960Z,3.40
2023-03-31T01:42:54.203Z,3.30
2023-03-31T01:45:27.751Z,3.30
2023-03-31T01:47:59.362Z,3.20
2023-03-31T01:50:30.666Z,3.30
2023-03-31T01:53:02.294Z,3.30
2023-03-31T01:55:35.281Z,3.30
2023-03-31T01:58:07.353Z,3.30
2023-03-31T02:00:40.446Z,3.40
2023-03-31T02:03:12.914Z,3.30
2023-03-31T02:05:44.927Z,3.30
2023-03-31T02:08:33.805Z,3.30
2023-03-31T02:11:04.205Z,3.30
2023-03-31T02:13:34.727Z,3.30
2023-03-31T02:16:06.741Z,3.30
2023-03-31T02:18:41.947Z,3.40
2023-03-31T02:21:14.360Z,3.40
2023-03-31T02:23:45.822Z,3.40
2023-03-31T02:26:17.341Z,3.40
2023-03-31T02:28:46.176Z,3.30
2023-03-31T02:31:20.191Z,3.40
2023-03-31T02:33:48.881Z,3.40
2023-03-31T02:36:17.696Z,3.40
2023-03-31T02:38:48.694Z,3.30
2023-03-31T02:41:18.768Z,3.30
2023-03-31T02:44:06.072Z,3.30
2023-03-31T02:46:34.729Z,3.30
2023-03-31T02:49:04.528Z,3.30
2023-03-31T02:52:00.076Z,3.40
2023-03-31T02:54:43.607Z,3.40
2023-03-31T02:57:20.697Z,3.40
2023-03-31T02:59:58.000Z,3.30
2023-03-31T03:02:33.683Z,3.30
2023-03-31T03:05:14.376Z,3.30
2023-03-31T03:07:52.851Z,3.40
2023-03-31T03:10:27.237Z,3.30
2023-03-31T03:12:59.761Z,3.30
2023-03-31T03:15:32.003Z,3.30
2023-03-31T03:18:01.113Z,3.30
2023-03-31T03:20:29.630Z,3.30
2023-03-31T03:22:58.136Z,3.30
2023-03-31T03:25:27.188Z,3.30
2023-03-31T03:27:55.672Z,3.30
2023-03-31T03:30:25.689Z,3.30
2023-03-31T03:32:54.902Z,3.30
2023-03-31T03:35:23.446Z,3.30
2023-03-31T03:37:51.920Z,3.30
2023-03-31T03:40:38.914Z,3.30
2023-03-31T03:43:07.393Z,3.20
2023-03-31T03:45:37.514Z,3.30
2023-03-31T03:48:06.408Z,3.30
2023-03-31T03:50:38.447Z,3.30
2023-03-31T03:53:07.302Z,3.30
2023-03-31T03:55:36.484Z,3.30
2023-03-31T03:58:05.776Z,3.20
2023-03-31T04:00:34.906Z,3.10
2023-03-31T04:03:05.606Z,3.00
2023-03-31T04:05:34.610Z,2.90
2023-03-31T04:08:03.487Z,2.90
2023-03-31T04:10:32.489Z,2.80
2023-03-31T04:13:01.343Z,2.80
2023-03-31T04:15:30.199Z,2.70
2023-03-31T04:17:59.217Z,2.80
2023-03-31T04:20:30.893Z,2.80
2023-03-31T04:22:59.862Z,2.80
2023-03-31T04:25:31.054Z,2.80
2023-03-31T04:28:00.108Z,2.80
2023-03-31T04:30:31.988Z,2.90
2023-03-31T04:33:03.144Z,2.90
2023-03-31T04:35:49.686Z,3.00
2023-03-31T04:38:20.034Z,3.10
2023-03-31T04:40:50.806Z,3.20
2023-03-31T04:43:20.904Z,3.30
2023-03-31T04:45:50.036Z,3.50
2023-03-31T04:48:19.175Z,3.60
2023-03-31T04:50:49.996Z,3.80
2023-03-31T04:53:18.939Z,3.90
2023-03-31T04:55:47.878Z,4.10
2023-03-31T04:58:16.850Z,4.30
2023-03-31T05:00:45.863Z,4.60
2023-03-31T05:03:14.852Z,4.90
2023-03-31T05:05:43.891Z,5.10
2023-03-31T05:08:14.335Z,5.20
2023-03-31T05:10:43.282Z,5.30
2023-03-31T05:13:12.272Z,5.40
2023-03-31T05:15:41.441Z,5.40
2023-03-31T05:18:10.861Z,5.60
2023-03-31T05:20:40.413Z,5.80
2023-03-31T05:23:09.304Z,6.00
2023-03-31T05:25:39.650Z,6.30
2023-03-31T05:28:08.856Z,6.50
2023-03-31T05:30:38.121Z,6.70
2023-03-31T05:33:07.057Z,6.90
2023-03-31T05:35:36.414Z,7.00
2023-03-31T05:38:05.795Z,7.20
2023-03-31T05:40:34.757Z,7.40
2023-03-31T05:43:05.046Z,7.60
2023-03-31T05:45:33.962Z,7.70
2023-03-31T05:48:03.099Z,7.80
2023-03-31T05:50:32.206Z,7.90
2023-03-31T05:53:01.160Z,8.10
2023-03-31T05:55:31.768Z,8.30
2023-03-31T05:58:02.377Z,8.40
2023-03-31T06:00:33.085Z,8.60
2023-03-31T06:03:02.115Z,8.70
2023-03-31T06:05:32.621Z,8.90
2023-03-31T06:08:01.754Z,8.90
2023-03-31T06:10:30.912Z,8.90
2023-03-31T06:12:59.810Z,8.90
2023-03-31T06:15:28.864Z,9.00
2023-03-31T06:17:59.261Z,9.10
2023-03-31T06:20:28.804Z,9.10
2023-03-31T06:22:58.993Z,9.20
2023-03-31T06:25:32.510Z,9.30
2023-03-31T06:28:09.424Z,9.20
2023-03-31T06:30:38.513Z,9.10
2023-03-31T06:33:09.182Z,9.20
2023-03-31T06:35:39.734Z,9.20
2023-03-31T06:38:09.175Z,9.20
2023-03-31T06:40:38.116Z,9.30
2023-03-31T06:43:07.011Z,9.30
2023-03-31T06:45:36.435Z,9.40
2023-03-31T06:48:05.623Z,9.30
2023-03-31T06:50:36.019Z,9.30
2023-03-31T06:53:05.074Z,9.30
2023-03-31T06:55:34.112Z,9.20
2023-03-31T06:58:03.478Z,9.20
2023-03-31T07:00:32.541Z,9.10
2023-03-31T07:03:01.599Z,9.10
2023-03-31T07:05:31.313Z,9.00
2023-03-31T07:08:02.700Z,9.00
2023-03-31T07:10:34.741Z,8.90
2023-03-31T07:13:05.602Z,8.90
2023-03-31T07:15:34.814Z,8.90
2023-03-31T07:18:03.694Z,9.00
2023-03-31T07:20:32.930Z,9.00
2023-03-31T07:23:06.614Z,9.20
2023-03-31T07:25:36.009Z,9.10
2023-03-31T07:28:06.187Z,9.30
2023-03-31T07:30:35.320Z,9.30
2023-03-31T07:33:04.424Z,9.40
2023-03-31T07:35:33.415Z,9.40
2023-03-31T07:38:03.782Z,9.40
2023-03-31T07:40:32.851Z,9.50
2023-03-31T07:43:02.124Z,9.50
2023-03-31T07:45:31.365Z,9.50
2023-03-31T07:48:00.911Z,9.50
2023-03-31T07:50:29.942Z,9.50
2023-03-31T07:53:00.711Z,9.60
2023-03-31T07:55:31.388Z,9.60
2023-03-31T07:58:00.420Z,9.70
2023-03-31T08:00:29.481Z,9.80
2023-03-31T08:02:58.566Z,9.80
2023-03-31T08:05:27.602Z,9.90
2023-03-31T08:07:56.537Z,9.90
2023-03-31T08:10:27.806Z,9.90
2023-03-31T08:12:58.154Z,10.00
2023-03-31T08:15:46.127Z,10.10
2023-03-31T08:18:15.103Z,10.20
2023-03-31T08:20:44.144Z,10.20
2023-03-31T08:23:13.064Z,10.20
2023-03-31T08:25:41.980Z,10.30
2023-03-31T08:28:31.058Z,10.30
2023-03-31T08:31:16.510Z,10.30
2023-03-31T08:33:45.883Z,10.40
2023-03-31T08:36:15.239Z,10.40
2023-03-31T08:38:46.484Z,10.50
2023-03-31T08:41:44.513Z,10.50
2023-03-31T08:44:17.686Z,10.60
2023-03-31T08:47:07.453Z,10.60
2023-03-31T08:49:41.733Z,10.70
2023-03-31T08:52:16.027Z,10.80
2023-03-31T08:54:49.646Z,10.90
2023-03-31T08:57:22.245Z,10.90
2023-03-31T08:59:52.862Z,11.00
2023-03-31T09:02:32.719Z,11.10
2023-03-31T09:05:24.365Z,11.30
2023-03-31T09:08:21.106Z,11.40
2023-03-31T09:10:57.180Z,11.60
2023-03-31T09:13:45.552Z,11.70
2023-03-31T09:16:17.700Z,11.80
2023-03-31T09:18:47.314Z,11.90
2023-03-31T09:21:20.903Z,12.00
2023-03-31T09:24:14.870Z,12.10
2023-03-31T09:26:47.624Z,12.20
2023-03-31T09:29:44.162Z,12.30
2023-03-31T09:32:19.675Z,12.40
2023-03-31T09:34:52.254Z,12.50
2023-03-31T09:37:21.612Z,12.70
2023-03-31T09:39:50.521Z,12.90
2023-03-31T09:42:20.656Z,13.10
2023-03-31T09:44:51.559Z,13.30
2023-03-31T09:47:30.577Z,13.50
2023-03-31T09:49:59.822Z,13.60
2023-03-31T09:52:32.024Z,13.70
2023-03-31T09:55:03.047Z,13.80
2023-03-31T09:57:34.458Z,13.80
2023-03-31T10:00:16.683Z,13.80
2023-03-31T10:02:51.702Z,13.80
2023-03-31T10:05:30.831Z,13.70
2023-03-31T10:08:20.370Z,13.70
2023-03-31T10:10:51.966Z,13.70
2023-03-31T10:13:23.745Z,13.70
2023-03-31T10:15:55.966Z,13.80
2023-03-31T10:18:35.721Z,13.80
2023-03-31T10:21:06.239Z,13.80
2023-03-31T10:23:36.989Z,13.80
2023-03-31T10:26:07.109Z,13.80
2023-03-31T10:28:37.728Z,13.80
2023-03-31T10:31:08.819Z,13.80
2023-03-31T10:33:45.243Z,13.80
2023-03-31T10:36:23.945Z,13.90
2023-03-31T10:38:53.980Z,13.90
2023-03-31T10:41:25.300Z,13.90
2023-03-31T10:43:55.721Z,13.80
2023-03-31T10:46:44.200Z,13.80
2023-03-31T10:49:27.659Z,13.80
2023-03-31T10:51:59.084Z,13.80
2023-03-31T10:54:28.444Z,13.90
2023-03-31T10:57:01.776Z,14.00
2023-03-31T11:00:05.901Z,14.00
2023-03-31T11:02:50.375Z,14.20
2023-03-31T11:05:28.400Z,14.20
2023-03-31T11:08:15.254Z,14.30
2023-03-31T11:10:59.417Z,14.50
2023-03-31T11:13:37.789Z,14.80
2023-03-31T11:16:20.312Z,15.30
2023-03-31T11:19:12.402Z,15.80
2023-03-31T11:21:54.712Z,16.40
2023-03-31T11:24:55.323Z,16.90
2023-03-31T11:27:34.210Z,17.30
2023-03-31T11:30:12.327Z,17.70
2023-03-31T11:32:57.480Z,17.80
2023-03-31T11:35:45.291Z,17.90
2023-03-31T11:38:34.683Z,17.90
2023-03-31T11:41:07.486Z,17.90
2023-03-31T11:43:41.721Z,17.90
2023-03-31T11:46:16.380Z,18.00
2023-03-31T11:48:49.178Z,18.00
2023-03-31T11:51:23.012Z,18.10
2023-03-31T11:53:55.964Z,18.10
2023-03-31T11:56:27.987Z,18.20
2023-03-31T11:59:01.348Z,18.20
2023-03-31T12:01:40.938Z,18.20
2023-03-31T12:04:18.720Z,18.20
2023-03-31T12:06:50.680Z,18.20
2023-03-31T12:09:26.788Z,18.30
2023-03-31T12:12:02.918Z,18.30
2023-03-31T12:14:36.315Z,18.30
2023-03-31T12:17:29.588Z,18.40
2023-03-31T12:20:02.424Z,18.40
2023-03-31T12:22:34.541Z,18.40
2023-03-31T12:25:05.625Z,18.50
2023-03-31T12:27:40.406Z,18.40
2023-03-31T12:30:15.667Z,18.40
2023-03-31T12:32:49.027Z,18.40
2023-03-31T12:35:24.037Z,18.40
2023-03-31T12:38:07.954Z,18.40
2023-03-31T12:40:47.625Z,18.40
2023-03-31T12:43:50.754Z,18.30
2023-03-31T12:46:32.573Z,18.30
2023-03-31T12:49:13.045Z,18.30
2023-03-31T12:52:02.214Z,18.20
2023-03-31T12:55:01.474Z,18.20
2023-03-31T12:57:32.939Z,18.10
2023-03-31T13:00:27.993Z,18.20
2023-03-31T13:03:34.591Z,18.00
2023-03-31T13:06:03.949Z,18.00
2023-03-31T13:08:54.970Z,18.00
2023-03-31T13:11:37.278Z,18.00
2023-03-31T13:14:14.442Z,18.00
2023-03-31T13:16:43.737Z,18.00
2023-03-31T13:19:28.301Z,18.00
2023-03-31T13:21:59.403Z,18.00
2023-03-31T13:24:29.868Z,18.00
2023-03-31T13:27:01.563Z,18.00
2023-03-31T13:29:44.544Z,18.00
2023-03-31T13:32:27.765Z,18.00
2023-03-31T13:35:01.515Z,18.00
2023-03-31T13:38:03.444Z,18.00
2023-03-31T13:41:10.118Z,17.90
2023-03-31T13:44:05.482Z,17.90
2023-03-31T13:46:57.852Z,17.80
2023-03-31T13:50:01.993Z,17.80
2023-03-31T13:52:41.214Z,17.70
2023-03-31T13:55:54.047Z,17.70
2023-03-31T13:58:40.794Z,17.60
2023-03-31T14:01:42.502Z,17.60
2023-03-31T14:04:41.973Z,17.50
2023-03-31T14:07:16.030Z,17.40
2023-03-31T14:09:50.067Z,17.40
2023-03-31T14:12:24.205Z,17.40
2023-03-31T14:14:57.839Z,17.30
2023-03-31T14:17:31.387Z,17.40
2023-03-31T14:20:28.748Z,17.40
2023-03-31T14:23:15.797Z,17.50
2023-03-31T14:25:52.784Z,17.60
2023-03-31T14:28:47.116Z,17.70
2023-03-31T14:31:21.797Z,17.80
2023-03-31T14:34:08.694Z,17.90
2023-03-31T14:36:48.273Z,17.90
2023-03-31T14:39:23.836Z,18.00
2023-03-31T14:41:55.187Z,17.90
2023-03-31T14:44:27.286Z,17.90
2023-03-31T14:46:58.679Z,17.90
2023-03-31T14:49:29.477Z,17.90
2023-03-31T14:52:06.721Z,17.80
2023-03-31T14:54:38.701Z,17.70
2023-03-31T14:57:07.907Z,17.70
2023-03-31T14:59:37.708Z,17.70
2023-03-31T15:02:07.695Z,17.60
2023-03-31T15:04:46.660Z,17.60
2023-03-31T15:07:18.162Z,17.50
2023-03-31T15:09:52.125Z,17.50
2023-03-31T15:12:23.717Z,17.40
2023-03-31T15:14:56.514Z,17.40
2023-03-31T15:17:27.445Z,17.30
2023-03-31T15:19:58.223Z,17.30
2023-03-31T15:22:50.958Z,17.20
2023-03-31T15:25:22.407Z,17.20
2023-03-31T15:27:54.997Z,17.10
2023-03-31T15:30:26.904Z,17.00
2023-03-31T15:33:01.479Z,17.00
2023-03-31T15:35:37.558Z,17.00
2023-03-31T15:38:08.484Z,16.90
2023-03-31T15:40:41.151Z,16.80
2023-03-31T15:43:25.433Z,16.80
2023-03-31T15:45:58.500Z,16.70
2023-03-31T15:48:33.929Z,16.70
2023-03-31T15:51:06.785Z,16.60
2023-03-31T15:53:46.932Z,16.50
2023-03-31T15:56:31.446Z,16.50
2023-03-31T15:59:04.590Z,16.40
2023-03-31T16:01:36.815Z,16.40
2023-03-31T16:04:10.402Z,16.30
2023-03-31T16:06:47.314Z,16.30
2023-03-31T16:09:21.677Z,16.20
2023-03-31T16:11:53.246Z,16.20
2023-03-31T16:14:24.632Z,16.10
2023-03-31T16:16:59.324Z,16.10
2023-03-31T16:19:32.227Z,16.00
2023-03-31T16:22:03.676Z,16.00
2023-03-31T16:24:36.244Z,16.00
2023-03-31T16:27:07.963Z,15.90
2023-03-31T16:29:38.783Z,15.90
2023-03-31T16:32:13.794Z,15.80
2023-03-31T16:34:57.290Z,15.70
2023-03-31T16:37:26.891Z,15.70
2023-03-31T16:39:57.835Z,15.60
2023-03-31T16:42:27.351Z,15.50
2023-03-31T16:45:12.591Z,15.50
2023-03-31T16:47:45.487Z,15.40
2023-03-31T16:50:15.985Z,15.30
2023-03-31T16:52:45.657Z,15.30
2023-03-31T16:55:16.318Z,15.20
2023-03-31T16:57:45.683Z,15.10
2023-03-31T17:00:16.441Z,15.00
2023-03-31T17:02:45.541Z,14.90
2023-03-31T17:05:15.311Z,14.90
2023-03-31T17:07:45.027Z,14.80
2023-03-31T17:10:14.303Z,14.70
2023-03-31T17:12:44.909Z,14.60
2023-03-31T17:15:14.891Z,14.50
2023-03-31T17:17:43.947Z,14.40
2023-03-31T17:20:19.294Z,14.40
2023-03-31T17:22:51.805Z,14.30
2023-03-31T17:25:20.927Z,14.30
2023-03-31T17:27:51.202Z,14.20
2023-03-31T17:30:20.174Z,14.20
2023-03-31T17:32:50.681Z,14.20
2023-03-31T17:35:22.757Z,14.20
2023-03-31T17:37:53.955Z,14.20
2023-03-31T17:40:23.694Z,14.20
2023-03-31T17:42:54.823Z,14.10
2023-03-31T17:45:24.188Z,14.10
2023-03-31T17:47:53.953Z,14.10
2023-03-31T17:50:23.878Z,14.10
2023-03-31T17:52:52.984Z,14.00
2023-03-31T17:55:21.902Z,14.00
2023-03-31T17:57:51.145Z,13.90
2023-03-31T18:00:22.145Z,13.90
2023-03-31T18:02:51.688Z,13.80
2023-03-31T18:05:20.684Z,13.80
2023-03-31T18:07:49.512Z,13.80
2023-03-31T18:10:18.852Z,13.80
2023-03-31T18:12:48.010Z,13.70
2023-03-31T18:15:17.038Z,13.70
2023-03-31T18:17:48.223Z,13.60
2023-03-31T18:20:17.258Z,13.60
2023-03-31T18:22:46.122Z,13.60
2023-03-31T18:25:15.643Z,13.60
2023-03-31T18:27:44.639Z,13.60
2023-03-31T18:30:14.926Z,13.50
2023-03-31T18:32:44.102Z,13.50
2023-03-31T18:35:14.635Z,13.40
2023-03-31T18:37:46.410Z,13.40
2023-03-31T18:40:15.948Z,13.40
2023-03-31T18:42:44.974Z,13.30
2023-03-31T18:45:13.906Z,13.30
2023-03-31T18:47:43.392Z,13.20
2023-03-31T18:50:14.404Z,13.20
2023-03-31T18:52:43.366Z,13.10
2023-03-31T18:55:12.376Z,13.10
2023-03-31T18:57:41.408Z,13.20
2023-03-31T19:00:11.484Z,13.10
2023-03-31T19:02:41.044Z,13.10
2023-03-31T19:05:13.739Z,13.10
2023-03-31T19:07:44.243Z,13.10
2023-03-31T19:10:21.074Z,13.10
2023-03-31T19:12:50.438Z,13.10
2023-03-31T19:15:19.624Z,13.10
2023-03-31T19:17:48.598Z,13.10
2023-03-31T19:20:17.758Z,13.10
2023-03-31T19:22:49.479Z,13.00
2023-03-31T19:25:19.567Z,13.00
2023-03-31T19:27:48.654Z,13.00
2023-03-31T19:30:20.374Z,13.00
2023-03-31T19:32:50.699Z,12.90
2023-03-31T19:35:21.019Z,12.90
2023-03-31T19:37:58.956Z,12.90
2023-03-31T19:40:29.274Z,12.90
2023-03-31T19:42:58.237Z,12.90
2023-03-31T19:45:27.230Z,12.90
2023-03-31T19:47:56.374Z,12.90
2023-03-31T19:50:26.246Z,12.90
2023-03-31T19:52:56.752Z,12.90
2023-03-31T19:55:26.176Z,12.90
2023-03-31T19:57:55.293Z,12.90
2023-03-31T20:00:31.968Z,12.90
2023-03-31T20:03:03.843Z,12.90
2023-03-31T20:05:34.938Z,12.90
2023-03-31T20:08:05.704Z,12.90
2023-03-31T20:10:53.732Z,12.90
2023-03-31T20:13:22.798Z,12.90
2023-03-31T20:16:00.951Z,12.80
2023-03-31T20:18:30.723Z,12.80
2023-03-31T20:21:08.771Z,12.80
2023-03-31T20:23:40.528Z,12.90
2023-03-31T20:26:11.917Z,12.90
2023-03-31T20:28:41.977Z,12.90
2023-03-31T20:31:11.972Z,12.90
2023-03-31T20:33:42.202Z,12.90
2023-03-31T20:36:13.742Z,12.80
2023-03-31T20:38:46.634Z,12.80
2023-03-31T20:41:16.448Z,12.70
2023-03-31T20:43:45.579Z,12.60
2023-03-31T20:46:14.672Z,12.60
2023-03-31T20:48:46.277Z,12.50
2023-03-31T20:51:19.503Z,12.40
2023-03-31T20:54:09.183Z,12.30
2023-03-31T20:56:40.656Z,12.20
2023-03-31T20:59:11.769Z,12.10
2023-03-31T21:01:42.827Z,12.10
2023-03-31T21:04:13.380Z,12.00
2023-03-31T21:06:44.735Z,11.90
2023-03-31T21:09:16.140Z,11.90
2023-03-31T21:11:45.093Z,11.80
2023-03-31T21:14:16.008Z,11.70
2023-03-31T21:16:45.669Z,11.70
2023-03-31T21:19:14.642Z,11.60
2023-03-31T21:21:43.537Z,11.50
2023-03-31T21:24:15.156Z,11.50
2023-03-31T21:26:44.492Z,11.40
2023-03-31T21:29:13.302Z,11.40
2023-03-31T21:31:45.070Z,11.30
2023-03-31T21:34:14.346Z,11.30
2023-03-31T21:36:43.654Z,11.20
2023-03-31T21:39:12.662Z,11.20
2023-03-31T21:41:43.357Z,11.10
2023-03-31T21:44:12.238Z,11.10
2023-03-31T21:46:41.374Z,11.10
2023-03-31T21:49:10.319Z,11.10
2023-03-31T21:51:39.425Z,11.10
2023-03-31T21:54:08.282Z,11.00
2023-03-31T21:56:37.483Z,11.00
2023-03-31T21:59:08.955Z,10.90
2023-03-31T22:01:38.104Z,10.90
2023-03-31T22:04:07.565Z,10.80
2023-03-31T22:06:39.636Z,10.80
2023-03-31T22:09:08.676Z,10.70
2023-03-31T22:11:37.510Z,10.70
2023-03-31T22:14:08.095Z,10.60
2023-03-31T22:16:37.155Z,10.50
2023-03-31T22:19:06.119Z,10.40
2023-03-31T22:21:45.903Z,10.40
2023-03-31T22:24:15.300Z,10.30
2023-03-31T22:26:44.360Z,10.30
2023-03-31T22:29:17.903Z,10.20
2023-03-31T22:31:47.006Z,10.10
2023-03-31T22:34:16.130Z,10.10
2023-03-31T22:36:45.106Z,10.00
2023-03-31T22:39:14.132Z,10.00
2023-03-31T22:41:43.088Z,10.00
2023-03-31T22:44:12.781Z,9.90
2023-03-31T22:46:46.651Z,9.90
2023-03-31T22:49:16.253Z,9.80
2023-03-31T22:51:45.354Z,9.80
2023-03-31T22:54:16.050Z,9.80
2023-03-31T22:56:45.641Z,9.70
2023-03-31T22:59:14.520Z,9.70
2023-03-31T23:01:47.162Z,9.60
2023-03-31T23:04:16.257Z,9.60
2023-03-31T23:06:45.130Z,9.50
2023-03-31T23:09:14.261Z,9.50
2023-03-31T23:11:45.095Z,9.40
2023-03-31T23:14:14.389Z,9.40
2023-03-31T23:16:44.756Z,9.30
2023-03-31T23:19:15.287Z,9.30
2023-03-31T23:21:44.324Z,9.20
2023-03-31T23:24:13.213Z,9.10
2023-03-31T23:26:42.065Z,9.10
2023-03-31T23:29:11.033Z,9.00
2023-03-31T23:31:39.884Z,9.00
2023-03-31T23:34:11.519Z,9.00
2023-03-31T23:36:40.335Z,9.00
2023-03-31T23:39:09.144Z,8.90
2023-03-31T23:41:37.979Z,8.90
2023-03-31T23:44:07.591Z,8.90
2023-03-31T23:46:38.124Z,8.90
2023-03-31T23:49:07.839Z,8.90
2023-03-31T23:51:38.153Z,8.90
2023-03-31T23:54:07.461Z,8.90
2023-03-31T23:56:36.312Z,8.90
2023-03-31T23:59:05.203Z,8.80
